createdAt,value
2019-05-14T00:01:03.727Z,2.13
2019-05-14T00:03:34.053Z,1.80
2019-05-14T00:06:04.433Z,2.10
2019-05-14T00:08:34.690Z,2.10
2019-05-14T00:11:04.951Z,2.67
2019-05-14T00:13:35.151Z,2.33
2019-05-14T00:16:05.358Z,1.97
2019-05-14T00:18:35.574Z,2.60
2019-05-14T00:21:05.743Z,2.63
2019-05-14T00:23:36.019Z,2.53
2019-05-14T00:26:06.213Z,2.40
2019-05-14T00:28:36.453Z,2.10
2019-05-14T00:31:06.640Z,3.23
2019-05-14T00:33:36.851Z,2.43
2019-05-14T00:36:07.045Z,2.47
2019-05-14T00:38:37.298Z,3.90
2019-05-14T00:41:07.483Z,3.43
2019-05-14T00:43:37.685Z,2.80
2019-05-14T00:46:07.956Z,2.07
2019-05-14T00:48:38.170Z,2.12
2019-05-14T00:51:08.359Z,2.37
2019-05-14T00:53:38.593Z,2.20
2019-05-14T00:56:10.903Z,2.30
2019-05-14T00:58:41.502Z,2.17
2019-05-14T01:01:12.357Z,2.05
2019-05-14T01:03:42.583Z,1.87
2019-05-14T01:06:12.787Z,2.50
2019-05-14T01:08:42.999Z,2.20
2019-05-14T01:11:13.199Z,2.45
2019-05-14T01:13:43.416Z,2.23
2019-05-14T01:16:13.603Z,2.10
2019-05-14T01:18:43.846Z,2.20
2019-05-14T01:21:14.029Z,2.00
2019-05-14T01:23:44.239Z,2.45
2019-05-14T01:26:14.421Z,2.33
2019-05-14T01:28:44.637Z,2.70
2019-05-14T01:31:14.978Z,3.07
2019-05-14T01:33:45.309Z,3.33
2019-05-14T01:36:15.490Z,2.43
2019-05-14T01:38:45.754Z,2.63
2019-05-14T01:41:15.968Z,2.50
2019-05-14T01:43:46.165Z,2.27
2019-05-14T01:46:16.420Z,2.55
2019-05-14T01:48:46.609Z,2.27
2019-05-14T01:51:16.835Z,2.37
2019-05-14T01:53:47.026Z,2.17
2019-05-14T01:56:17.242Z,2.02
2019-05-14T01:58:47.429Z,2.70
2019-05-14T02:01:17.643Z,2.30
2019-05-14T02:03:47.839Z,2.90
2019-05-14T02:06:18.077Z,2.60
2019-05-14T02:08:48.322Z,2.35
2019-05-14T02:11:18.684Z,2.60
2019-05-14T02:13:48.902Z,2.23
2019-05-14T02:16:19.093Z,2.43
2019-05-14T02:18:49.319Z,2.57
2019-05-14T02:21:19.502Z,2.40
2019-05-14T02:23:51.425Z,2.40
2019-05-14T02:26:22.178Z,2.60
2019-05-14T02:28:52.384Z,2.10
2019-05-14T02:31:22.571Z,2.50
2019-05-14T02:33:52.791Z,2.80
2019-05-14T02:36:22.971Z,2.50
2019-05-14T02:38:53.190Z,2.20
2019-05-14T02:41:23.410Z,2.50
2019-05-14T02:43:53.990Z,2.30
2019-05-14T02:46:24.299Z,2.80
2019-05-14T02:48:54.484Z,2.50
2019-05-14T02:51:24.788Z,2.80
2019-05-14T02:53:55.018Z,2.30
2019-05-14T02:56:25.207Z,2.47
2019-05-14T02:58:55.502Z,2.80
2019-05-14T03:01:25.690Z,2.67
2019-05-14T03:03:55.967Z,2.40
2019-05-14T03:06:28.989Z,2.90
2019-05-14T03:08:59.963Z,2.60
2019-05-14T03:11:30.102Z,2.70
2019-05-14T03:14:00.300Z,2.20
2019-05-14T03:16:35.402Z,2.83
2019-05-14T03:19:02.514Z,2.50
2019-05-14T03:21:32.880Z,2.50
2019-05-14T03:24:03.213Z,2.60
2019-05-14T03:26:33.450Z,2.40
2019-05-14T03:29:03.723Z,2.83
2019-05-14T03:31:34.253Z,3.23
2019-05-14T03:34:04.639Z,3.27
2019-05-14T03:36:35.634Z,2.87
2019-05-14T03:39:10.515Z,3.10
2019-05-14T03:41:39.999Z,2.52
2019-05-14T03:44:10.583Z,2.67
2019-05-14T03:46:49.774Z,2.93
2019-05-14T03:49:12.897Z,2.77
2019-05-14T03:51:43.152Z,2.53
2019-05-14T03:54:13.450Z,2.83
2019-05-14T03:56:43.712Z,2.90
2019-05-14T03:59:14.094Z,2.60
2019-05-14T04:01:44.449Z,3.47
2019-05-14T04:04:14.936Z,3.17
2019-05-14T04:06:49.753Z,2.83
2019-05-14T04:09:21.431Z,2.75
2019-05-14T04:11:54.336Z,2.47
2019-05-14T04:14:29.226Z,2.80
2019-05-14T04:17:09.774Z,2.70
2019-05-14T04:19:39.535Z,3.53
2019-05-14T04:22:13.759Z,2.70
2019-05-14T04:24:49.392Z,2.80
2019-05-14T04:27:20.519Z,2.47
2019-05-14T04:29:54.326Z,2.80
2019-05-14T04:32:24.632Z,2.85
2019-05-14T04:34:55.100Z,2.80
2019-05-14T04:37:25.455Z,3.10
2019-05-14T04:39:59.090Z,3.40
2019-05-14T04:42:29.523Z,3.37
2019-05-14T04:45:05.232Z,3.47
2019-05-14T04:47:37.242Z,3.00
2019-05-14T04:50:10.227Z,3.23
2019-05-14T04:52:40.282Z,3.53
2019-05-14T04:55:10.421Z,3.40
2019-05-14T04:57:40.703Z,3.63
2019-05-14T05:00:12.486Z,3.53
2019-05-14T05:02:43.086Z,3.63
2019-05-14T05:05:13.533Z,4.30
2019-05-14T05:07:44.142Z,3.63
2019-05-14T05:10:14.406Z,4.23
2019-05-14T05:12:44.624Z,3.93
2019-05-14T05:15:14.976Z,3.27
2019-05-14T05:17:51.717Z,3.50
2019-05-14T05:20:19.330Z,3.30
2019-05-14T05:22:49.073Z,3.00
2019-05-14T05:25:19.302Z,2.90
2019-05-14T05:27:49.488Z,2.75
2019-05-14T05:30:21.009Z,3.10
2019-05-14T05:32:51.201Z,3.07
2019-05-14T05:35:21.431Z,2.70
2019-05-14T05:37:51.651Z,3.20
2019-05-14T05:40:22.138Z,2.62
2019-05-14T05:42:52.322Z,2.60
2019-05-14T05:45:22.581Z,3.00
2019-05-14T05:47:57.458Z,2.37
2019-05-14T05:50:24.769Z,2.73
2019-05-14T05:52:54.975Z,2.27
2019-05-14T05:55:25.165Z,2.13
2019-05-14T05:57:58.478Z,2.10
2019-05-14T06:00:40.880Z,2.27
2019-05-14T06:03:11.434Z,2.20
2019-05-14T06:05:41.659Z,1.80
2019-05-14T06:08:12.603Z,2.35
2019-05-14T06:10:42.817Z,2.33
2019-05-14T06:13:14.036Z,2.10
2019-05-14T06:15:48.699Z,2.07
2019-05-14T06:18:19.434Z,2.42
2019-05-14T06:20:49.530Z,2.20
2019-05-14T06:23:19.791Z,2.40
2019-05-14T06:25:50.039Z,1.90
2019-05-14T06:28:21.058Z,1.87
2019-05-14T06:30:51.438Z,2.23
2019-05-14T06:33:21.622Z,1.77
2019-05-14T06:35:51.837Z,1.90
2019-05-14T06:38:22.037Z,2.17
2019-05-14T06:40:52.270Z,1.90
2019-05-14T06:43:22.796Z,1.80
2019-05-14T06:45:53.007Z,2.00
2019-05-14T06:48:30.308Z,2.53
2019-05-14T06:50:55.147Z,2.10
2019-05-14T06:53:25.362Z,2.10
2019-05-14T06:55:55.665Z,2.00
2019-05-14T06:58:25.862Z,1.93
2019-05-14T07:00:58.471Z,2.30
2019-05-14T07:03:28.270Z,2.37
2019-05-14T07:05:59.559Z,2.07
2019-05-14T07:08:29.897Z,2.17
2019-05-14T07:11:00.151Z,1.83
2019-05-14T07:13:30.361Z,1.77
2019-05-14T07:16:00.639Z,2.00
2019-05-14T07:18:45.738Z,2.10
2019-05-14T07:21:02.731Z,1.90
2019-05-14T07:23:32.924Z,2.03
2019-05-14T07:26:03.150Z,2.00
2019-05-14T07:28:33.336Z,1.90
2019-05-14T07:31:03.598Z,1.57
2019-05-14T07:33:33.795Z,1.60
2019-05-14T07:36:04.028Z,2.40
2019-05-14T07:38:34.250Z,2.30
2019-05-14T07:41:04.566Z,2.47
2019-05-14T07:43:34.757Z,2.37
2019-05-14T07:46:05.162Z,2.37
2019-05-14T07:48:35.351Z,1.70
2019-05-14T07:51:08.441Z,2.10
2019-05-14T07:53:41.622Z,1.80
2019-05-14T07:56:09.700Z,2.03
2019-05-14T07:58:39.949Z,2.23
2019-05-14T08:01:10.194Z,1.70
2019-05-14T08:03:40.421Z,2.10
2019-05-14T08:06:10.642Z,1.73
2019-05-14T08:08:41.505Z,1.50
2019-05-14T08:11:12.876Z,1.67
2019-05-14T08:13:43.198Z,1.20
2019-05-14T08:16:13.474Z,1.40
2019-05-14T08:18:43.724Z,1.20
2019-05-14T08:21:13.943Z,1.50
2019-05-14T08:23:44.163Z,1.00
2019-05-14T08:26:14.451Z,1.60
2019-05-14T08:28:44.676Z,1.30
2019-05-14T08:31:14.888Z,1.63
2019-05-14T08:33:45.143Z,1.60
2019-05-14T08:36:15.342Z,2.20
2019-05-14T08:38:46.509Z,1.77
2019-05-14T08:41:19.758Z,1.50
2019-05-14T08:43:49.666Z,1.30
2019-05-14T08:46:20.009Z,1.50
2019-05-14T08:48:50.229Z,1.80
2019-05-14T08:51:20.514Z,1.37
2019-05-14T08:53:50.788Z,1.30
2019-05-14T08:56:20.960Z,1.73
2019-05-14T08:58:51.198Z,1.37
2019-05-14T09:01:21.404Z,1.30
2019-05-14T09:03:51.626Z,1.40
2019-05-14T09:06:21.936Z,1.23
2019-05-14T09:08:52.209Z,1.47
2019-05-14T09:11:25.106Z,1.30
2019-05-14T09:13:54.380Z,1.60
2019-05-14T09:16:38.336Z,1.63
2019-05-14T09:18:58.150Z,1.83
2019-05-14T09:21:29.633Z,1.43
2019-05-14T09:24:00.118Z,1.67
2019-05-14T09:26:30.439Z,1.30
2019-05-14T09:29:16.933Z,1.67
2019-05-14T09:31:32.701Z,1.50
2019-05-14T09:34:02.900Z,1.90
2019-05-14T09:36:33.150Z,2.07
2019-05-14T09:39:05.019Z,1.50
2019-05-14T09:41:35.383Z,1.23
2019-05-14T09:44:05.659Z,1.70
2019-05-14T09:46:38.277Z,1.37
2019-05-14T09:49:08.114Z,1.65
2019-05-14T09:51:38.618Z,1.83
2019-05-14T09:54:08.839Z,2.10
2019-05-14T09:56:39.652Z,1.83
2019-05-14T09:59:09.853Z,1.95
2019-05-14T10:01:40.085Z,1.80
2019-05-14T10:04:22.129Z,1.70
2019-05-14T10:06:52.388Z,1.70
2019-05-14T10:09:22.589Z,2.20
2019-05-14T10:11:52.805Z,1.57
2019-05-14T10:14:23.045Z,1.62
2019-05-14T10:16:53.251Z,1.70
2019-05-14T10:19:23.481Z,1.57
2019-05-14T10:21:53.690Z,1.80
2019-05-14T10:24:23.934Z,1.53
2019-05-14T10:26:54.145Z,1.17
2019-05-14T10:29:24.679Z,1.40
2019-05-14T10:31:55.690Z,2.10
2019-05-14T10:34:28.729Z,1.70
2019-05-14T10:36:59.346Z,1.90
2019-05-14T10:39:30.059Z,2.27
2019-05-14T10:42:00.419Z,1.40
2019-05-14T10:44:30.651Z,1.50
2019-05-14T10:47:00.870Z,1.40
2019-05-14T10:49:50.417Z,1.40
2019-05-14T10:52:32.930Z,1.43
2019-05-14T10:55:03.217Z,1.40
2019-05-14T10:57:33.447Z,1.30
2019-05-14T11:00:04.495Z,1.57
2019-05-14T11:02:35.059Z,1.27
2019-05-14T11:05:18.709Z,1.70
2019-05-14T11:07:49.102Z,1.50
2019-05-14T11:10:19.671Z,1.60
2019-05-14T11:12:51.505Z,1.85
2019-05-14T11:15:22.016Z,1.60
2019-05-14T11:17:52.253Z,1.73
2019-05-14T11:20:22.873Z,2.22
2019-05-14T11:22:53.159Z,1.20
2019-05-14T11:25:23.527Z,1.60
2019-05-14T11:27:53.759Z,1.10
2019-05-14T11:30:24.685Z,1.20
2019-05-14T11:32:54.923Z,1.20
2019-05-14T11:35:25.139Z,1.47
2019-05-14T11:37:55.362Z,1.20
2019-05-14T11:40:25.586Z,1.25
2019-05-14T11:42:55.749Z,1.20
2019-05-14T11:45:26.378Z,1.20
2019-05-14T11:47:58.427Z,1.10
2019-05-14T11:50:28.934Z,1.30
2019-05-14T11:52:59.268Z,1.10
2019-05-14T11:55:29.471Z,1.50
2019-05-14T11:57:59.700Z,1.00
2019-05-14T12:00:30.847Z,1.00
2019-05-14T12:03:01.575Z,1.20
2019-05-14T12:05:31.791Z,1.07
2019-05-14T12:08:02.035Z,1.13
2019-05-14T12:10:32.226Z,1.37
2019-05-14T12:13:02.536Z,1.47
2019-05-14T12:15:33.930Z,1.80
2019-05-14T12:18:10.450Z,1.80
2019-05-14T12:20:40.432Z,1.40
2019-05-14T12:23:10.701Z,1.60
2019-05-14T12:25:40.890Z,1.50
2019-05-14T12:28:13.647Z,1.50
2019-05-14T12:30:43.034Z,1.60
2019-05-14T12:33:13.258Z,1.73
2019-05-14T12:35:43.468Z,1.50
2019-05-14T12:38:13.680Z,1.70
2019-05-14T12:40:44.440Z,1.30
2019-05-14T12:43:14.673Z,1.20
2019-05-14T12:45:44.873Z,1.87
2019-05-14T12:48:15.093Z,1.30
2019-05-14T12:50:48.645Z,1.27
2019-05-14T12:53:19.912Z,1.22
2019-05-14T12:55:49.700Z,1.10
2019-05-14T12:58:20.490Z,1.60
2019-05-14T13:00:50.861Z,1.50
2019-05-14T13:03:21.091Z,1.27
2019-05-14T13:05:51.448Z,1.20
2019-05-14T13:08:21.690Z,1.40
2019-05-14T13:10:51.891Z,1.30
2019-05-14T13:13:42.848Z,1.50
2019-05-14T13:16:13.315Z,1.40
2019-05-14T13:18:43.550Z,1.30
2019-05-14T13:21:13.781Z,1.20
2019-05-14T13:23:44.013Z,1.10
2019-05-14T13:26:14.299Z,1.30
2019-05-14T13:28:44.512Z,1.20
2019-05-14T13:31:14.739Z,1.50
2019-05-14T13:33:44.972Z,1.40
2019-05-14T13:36:15.209Z,1.60
2019-05-14T13:38:45.507Z,1.30
2019-05-14T13:41:15.706Z,1.50
2019-05-14T13:43:45.933Z,1.30
2019-05-14T13:46:18.809Z,1.50
2019-05-14T13:48:49.947Z,1.70
2019-05-14T13:51:20.021Z,1.00
2019-05-14T13:53:50.202Z,1.47
2019-05-14T13:56:20.446Z,1.80
2019-05-14T13:58:50.692Z,1.87
2019-05-14T14:01:20.896Z,1.30
2019-05-14T14:04:04.276Z,1.62
2019-05-14T14:06:23.046Z,1.57
2019-05-14T14:08:53.261Z,1.37
2019-05-14T14:11:23.486Z,1.70
2019-05-14T14:13:53.684Z,1.70
2019-05-14T14:16:23.999Z,1.40
2019-05-14T14:18:54.225Z,1.30
2019-05-14T14:21:24.454Z,1.20
2019-05-14T14:23:54.696Z,1.60
2019-05-14T14:26:25.252Z,1.67
2019-05-14T14:28:55.485Z,1.30
2019-05-14T14:31:25.703Z,1.50
2019-05-14T14:33:55.921Z,1.43
2019-05-14T14:36:29.575Z,1.80
2019-05-14T14:38:58.785Z,1.42
2019-05-14T14:41:29.172Z,1.62
2019-05-14T14:43:59.384Z,1.30
2019-05-14T14:46:29.688Z,1.70
2019-05-14T14:49:02.634Z,1.40
2019-05-14T14:51:31.940Z,1.23
2019-05-14T14:54:10.616Z,1.10
2019-05-14T14:56:34.091Z,1.20
2019-05-14T14:59:04.765Z,1.37
2019-05-14T15:01:35.236Z,1.50
2019-05-14T15:04:05.601Z,1.30
2019-05-14T15:06:39.444Z,1.30
2019-05-14T15:09:09.751Z,1.30
2019-05-14T15:11:40.072Z,1.50
2019-05-14T15:14:10.384Z,1.30
2019-05-14T15:16:40.604Z,1.00
2019-05-14T15:19:10.899Z,0.97
2019-05-14T15:21:41.144Z,0.77
2019-05-14T15:24:15.369Z,1.07
2019-05-14T15:26:43.416Z,1.00
2019-05-14T15:29:13.805Z,0.90
2019-05-14T15:31:44.015Z,1.20
2019-05-14T15:34:14.222Z,1.00
2019-05-14T15:36:44.452Z,1.20
2019-05-14T15:39:14.684Z,2.00
2019-05-14T15:41:44.948Z,1.30
2019-05-14T15:44:15.202Z,1.17
2019-05-14T15:46:45.434Z,1.10
2019-05-14T15:49:15.717Z,1.10
2019-05-14T15:51:45.921Z,1.30
2019-05-14T15:54:35.965Z,1.40
2019-05-14T15:56:49.362Z,1.00
2019-05-14T15:59:19.787Z,1.20
2019-05-14T16:01:50.004Z,1.60
2019-05-14T16:04:20.855Z,1.37
2019-05-14T16:06:52.316Z,1.67
2019-05-14T16:09:22.534Z,1.60
2019-05-14T16:11:52.770Z,1.63
2019-05-14T16:14:23.061Z,1.37
2019-05-14T16:16:53.264Z,1.40
2019-05-14T16:19:23.493Z,1.30
2019-05-14T16:21:53.731Z,1.50
2019-05-14T16:24:23.959Z,1.07
2019-05-14T16:26:54.172Z,1.40
2019-05-14T16:29:40.291Z,1.20
2019-05-14T16:31:58.186Z,1.23
2019-05-14T16:34:28.786Z,0.90
2019-05-14T16:36:59.032Z,1.20
2019-05-14T16:39:29.278Z,0.90
2019-05-14T16:41:59.511Z,1.10
2019-05-14T16:44:29.766Z,1.20
2019-05-14T16:46:59.986Z,1.20
2019-05-14T16:49:33.461Z,1.70
2019-05-14T16:52:02.192Z,1.30
2019-05-14T16:54:32.403Z,1.20
2019-05-14T16:57:02.618Z,1.20
2019-05-14T16:59:32.830Z,1.97
2019-05-14T17:02:03.032Z,1.13
2019-05-14T17:04:33.274Z,1.50
2019-05-14T17:07:03.501Z,1.37
2019-05-14T17:09:33.802Z,1.30
2019-05-14T17:12:04.019Z,1.83
2019-05-14T17:14:34.265Z,1.40
2019-05-14T17:17:04.565Z,1.30
2019-05-14T17:19:34.788Z,1.20
2019-05-14T17:22:23.332Z,1.70
2019-05-14T17:24:39.482Z,1.50
2019-05-14T17:27:08.917Z,1.47
2019-05-14T17:29:39.203Z,1.37
2019-05-14T17:32:09.400Z,1.30
2019-05-14T17:34:39.615Z,1.20
2019-05-14T17:37:09.861Z,1.43
2019-05-14T17:39:41.740Z,1.07
2019-05-14T17:42:12.058Z,1.57
2019-05-14T17:44:42.370Z,1.27
2019-05-14T17:47:13.445Z,2.33
2019-05-14T17:49:44.028Z,1.30
2019-05-14T17:52:14.283Z,1.20
2019-05-14T17:54:56.788Z,1.70
2019-05-14T17:57:34.067Z,1.60
2019-05-14T17:59:58.955Z,1.30
2019-05-14T18:02:29.208Z,1.45
2019-05-14T18:04:59.495Z,1.30
2019-05-14T18:07:29.747Z,1.50
2019-05-14T18:10:00.011Z,1.90
2019-05-14T18:12:30.882Z,1.90
2019-05-14T18:15:01.308Z,1.53
2019-05-14T18:17:31.563Z,2.07
2019-05-14T18:20:01.899Z,1.73
2019-05-14T18:22:32.127Z,1.67
2019-05-14T18:25:02.356Z,1.80
2019-05-14T18:27:32.563Z,1.80
2019-05-14T18:30:02.776Z,1.90
2019-05-14T18:32:32.978Z,1.37
2019-05-14T18:35:03.178Z,1.30
2019-05-14T18:37:33.401Z,1.33
2019-05-14T18:40:05.455Z,1.40
2019-05-14T18:42:35.684Z,1.60
2019-05-14T18:45:08.604Z,1.50
2019-05-14T18:47:39.774Z,1.13
2019-05-14T18:50:11.410Z,1.30
2019-05-14T18:52:41.640Z,1.17
2019-05-14T18:55:12.373Z,1.40
2019-05-14T18:57:42.600Z,1.30
2019-05-14T19:00:14.104Z,1.57
2019-05-14T19:02:44.388Z,1.33
2019-05-14T19:05:15.121Z,1.40
2019-05-14T19:07:45.332Z,1.53
2019-05-14T19:10:18.402Z,1.47
2019-05-14T19:12:49.944Z,2.00
2019-05-14T19:15:19.801Z,3.30
2019-05-14T19:17:50.023Z,2.53
2019-05-14T19:20:20.265Z,2.30
2019-05-14T19:22:50.446Z,2.00
2019-05-14T19:25:20.660Z,1.67
2019-05-14T19:27:50.867Z,2.13
2019-05-14T19:30:21.211Z,2.10
2019-05-14T19:32:51.478Z,1.85
2019-05-14T19:35:21.888Z,1.90
2019-05-14T19:37:52.093Z,1.70
2019-05-14T19:40:22.360Z,1.90
2019-05-14T19:42:52.601Z,1.90
2019-05-14T19:45:22.975Z,1.70
2019-05-14T19:47:53.192Z,1.80
2019-05-14T19:50:23.482Z,2.20
2019-05-14T19:52:53.786Z,1.90
2019-05-14T19:55:24.007Z,2.30
2019-05-14T19:57:54.301Z,2.47
2019-05-14T20:00:28.845Z,3.03
2019-05-14T20:02:58.534Z,2.87
2019-05-14T20:05:28.823Z,2.73
2019-05-14T20:07:59.046Z,2.20
2019-05-14T20:10:29.533Z,2.37
2019-05-14T20:12:59.833Z,3.07
2019-05-14T20:15:30.038Z,2.60
2019-05-14T20:18:00.289Z,2.80
2019-05-14T20:20:30.497Z,3.10
2019-05-14T20:23:00.696Z,2.47
2019-05-14T20:25:30.978Z,2.30
2019-05-14T20:28:01.183Z,2.30
2019-05-14T20:30:31.465Z,2.63
2019-05-14T20:33:01.693Z,2.40
2019-05-14T20:35:34.945Z,2.37
2019-05-14T20:38:03.809Z,2.27
2019-05-14T20:40:34.023Z,2.60
2019-05-14T20:43:04.213Z,2.20
2019-05-14T20:45:34.494Z,2.43
2019-05-14T20:48:05.002Z,2.37
2019-05-14T20:50:38.469Z,2.07
2019-05-14T20:53:09.150Z,2.50
2019-05-14T20:55:40.101Z,2.30
2019-05-14T20:58:10.318Z,2.10
2019-05-14T21:00:50.259Z,2.03
2019-05-14T21:03:22.528Z,2.10
2019-05-14T21:05:52.744Z,2.40
2019-05-14T21:08:22.953Z,2.57
2019-05-14T21:10:53.168Z,4.47
2019-05-14T21:13:23.382Z,2.97
2019-05-14T21:15:53.610Z,2.62
2019-05-14T21:18:34.727Z,2.70
2019-05-14T21:20:56.777Z,2.47
2019-05-14T21:23:26.982Z,2.47
2019-05-14T21:25:57.203Z,2.33
2019-05-14T21:28:29.843Z,2.60
2019-05-14T21:30:59.326Z,2.67
2019-05-14T21:33:30.363Z,2.40
2019-05-14T21:36:00.780Z,2.37
2019-05-14T21:38:30.979Z,2.40
2019-05-14T21:41:01.256Z,2.60
2019-05-14T21:43:31.462Z,2.17
2019-05-14T21:46:01.659Z,2.30
2019-05-14T21:48:31.841Z,2.37
2019-05-14T21:51:02.022Z,2.10
2019-05-14T21:53:32.285Z,2.40
2019-05-14T21:56:02.481Z,2.27
2019-05-14T21:58:32.699Z,2.40
2019-05-14T22:01:03.589Z,2.30
2019-05-14T22:03:33.876Z,2.43
2019-05-14T22:06:04.210Z,2.67
2019-05-14T22:08:34.419Z,2.40
2019-05-14T22:11:04.701Z,2.20
2019-05-14T22:13:34.913Z,2.10
2019-05-14T22:16:05.107Z,2.60
2019-05-14T22:18:35.359Z,2.90
2019-05-14T22:21:05.759Z,2.83
2019-05-14T22:23:38.525Z,2.80
2019-05-14T22:26:07.867Z,2.90
2019-05-14T22:28:38.101Z,2.80
2019-05-14T22:31:09.141Z,2.80
2019-05-14T22:33:39.584Z,3.20
2019-05-14T22:36:09.783Z,2.62
2019-05-14T22:38:40.057Z,2.80
2019-05-14T22:41:11.617Z,2.77
2019-05-14T22:43:41.925Z,2.80
2019-05-14T22:46:12.132Z,2.93
2019-05-14T22:48:42.430Z,2.70
2019-05-14T22:51:13.766Z,2.70
2019-05-14T22:53:43.952Z,2.67
2019-05-14T22:56:14.166Z,3.47
2019-05-14T22:58:44.325Z,2.70
2019-05-14T23:01:15.317Z,2.90
2019-05-14T23:03:45.611Z,3.00
2019-05-14T23:06:15.849Z,3.42
2019-05-14T23:08:48.467Z,2.60
2019-05-14T23:11:19.798Z,3.10
2019-05-14T23:13:49.881Z,3.00
2019-05-14T23:16:33.458Z,2.60
2019-05-14T23:18:52.019Z,2.90
2019-05-14T23:21:22.257Z,2.83
2019-05-14T23:23:52.449Z,2.90
2019-05-14T23:26:22.709Z,2.90
2019-05-14T23:28:52.923Z,2.60
2019-05-14T23:31:23.287Z,2.80
2019-05-14T23:33:53.482Z,2.63
2019-05-14T23:36:23.691Z,2.90
2019-05-14T23:38:54.960Z,2.87
2019-05-14T23:41:25.194Z,2.80
2019-05-14T23:43:55.441Z,2.77
2019-05-14T23:46:25.645Z,2.97
2019-05-14T23:48:55.867Z,2.98
2019-05-14T23:51:26.063Z,3.33
2019-05-14T23:53:56.302Z,2.70
2019-05-14T23:56:28.671Z,3.00
2019-05-14T23:59:01.865Z,3.00
